Aérodrome :
LOGIN :

S'inscrire | Disclaimer

   EN    FR    IT 

 










Légende :    VFR   VFR Marginal   IFR   IFR Intensif   IFR Très Intensif
Visi : 
Plafond : 
>= 8 km
>= 3000ft
5 à 8 km
1000 à 3000 ft
1500m à 5 km
500 à 1000 ft
800 à 1500m
200 à 500 ft
< 800m
< 200 ft
Symboles :   Orages  Brouillard  Fortes neiges  Fortes précipitations  Vent > 20 kt
SIGMETs :   Divers  Orages  Givrage  Turbulence  Onde Orograph.  Cendres Volcan.







- Altitude de l'aérodrome : 1860 ft
- Code IATA : GRX


LEGR - Granada

DERNIER METAR :
  • 232100Z VRB02KT 9999 FEW060 23/02 Q1017

METARs EXPIRÉS :
  • 232030Z 19003KT 140V240 9999 FEW060 23/02 Q1016
  • 232000Z 19007KT 160V220 9999 FEW060 24/01 Q1016
  • 231930Z 20008KT 170V230 9999 FEW060 24/01 Q1016
  • 231900Z 21007KT 9999 FEW060 26/02 Q1016
  • 231830Z 24006KT 9999 FEW060 27/02 Q1016

TAF TAF LEGR
Valide du 23 à 21h jusqu'au 24 à 21h UTC


232000Z 2321/2421 VRB03KT 9999 FEW060 TX30/2415Z TN11/2405Z
BECMG 2411/2413 29010KT
BECMG 2418/2420 VRB02KT
Pas de NOTAMs connus pour ce terrain.
1 SIGMET publié pour la FIR Madrid (LECM) :
 
Orages noyés dans la masse
LECM SIGMET 4 VALID 232015/232230 LEVA
LECM MADRID FIR/UIR EMBD TS OBS AT 2015Z WI N4020 W00050 - N4211 W00017 - N4306 W00252 - N4111 W00335 - N4020 W00050 TOP FL300 MOV E 10KT WKN=



MET'MAP, la Météo Aéronautique d'un coup d'oeil ! - Copyright ORBIFLY Décembre 2007 - Disclaimer

ORBIFLY MET'MAP TEAM :

Programmation & Développement : Alexandra Zaïnal
Conception & Développement : Baudouin d'Aumeries
Co-Programmation & Développement : Marc-Olivier Méhu
Soutien technique & logistique : Manuel Goepfert

Contact : metmap@orbifly.com




SOURCES & CREDITS :

   NOAA